createdAt,value
2018-08-19T00:00:01.142Z,67.67
2018-08-19T00:02:31.360Z,68.07
2018-08-19T00:05:08.137Z,67.67
2018-08-19T00:07:38.267Z,67.63
2018-08-19T00:10:08.523Z,67.90
2018-08-19T00:12:45.060Z,67.88
2018-08-19T00:15:15.913Z,67.99
2018-08-19T00:17:46.370Z,68.12
2018-08-19T00:20:16.576Z,68.39
2018-08-19T00:22:48.285Z,68.64
2018-08-19T00:25:28.816Z,68.75
2018-08-19T00:27:59.333Z,68.67
2018-08-19T00:30:31.166Z,69.19
2018-08-19T00:33:01.692Z,69.03
2018-08-19T00:35:33.028Z,69.11
2018-08-19T00:38:03.825Z,69.54
2018-08-19T00:40:34.137Z,69.46
2018-08-19T00:43:04.190Z,70.17
2018-08-19T00:45:34.220Z,69.79
2018-08-19T00:48:04.365Z,70.13
2018-08-19T00:50:34.401Z,69.62
2018-08-19T00:53:04.557Z,69.49
2018-08-19T00:55:40.200Z,69.81
2018-08-19T00:58:16.258Z,69.93
2018-08-19T01:00:46.746Z,69.61
2018-08-19T01:03:20.716Z,70.31
2018-08-19T01:05:51.288Z,70.91
2018-08-19T01:08:21.285Z,70.71
2018-08-19T01:10:51.554Z,71.45
2018-08-19T01:13:22.002Z,71.04
2018-08-19T01:15:52.341Z,71.26
2018-08-19T01:18:22.604Z,70.75
2018-08-19T01:21:02.725Z,70.49
2018-08-19T01:23:32.983Z,70.65
2018-08-19T01:26:03.710Z,70.18
2018-08-19T01:28:36.528Z,70.51
2018-08-19T01:31:06.545Z,70.58
2018-08-19T01:33:36.525Z,70.32
2018-08-19T01:36:06.599Z,70.54
2018-08-19T01:38:36.374Z,70.60
2018-08-19T01:41:06.396Z,70.49
2018-08-19T01:43:36.387Z,69.92
2018-08-19T01:46:06.412Z,70.46
2018-08-19T01:48:36.413Z,70.13
2018-08-19T01:51:07.553Z,69.94
2018-08-19T01:53:37.636Z,70.15
2018-08-19T01:56:07.885Z,70.59
2018-08-19T01:58:42.325Z,70.86
2018-08-19T02:01:12.475Z,70.99
2018-08-19T02:03:42.517Z,70.78
2018-08-19T02:06:12.456Z,70.40
2018-08-19T02:08:42.338Z,70.60
2018-08-19T02:11:25.581Z,70.60
2018-08-19T02:13:56.304Z,70.55
2018-08-19T02:16:26.155Z,70.41
2018-08-19T02:18:55.980Z,70.36
2018-08-19T02:21:25.806Z,70.33
2018-08-19T02:23:56.196Z,70.88
2018-08-19T02:26:30.134Z,70.52
2018-08-19T02:29:00.678Z,70.73
2018-08-19T02:31:30.485Z,70.58
2018-08-19T02:34:00.320Z,70.46
2018-08-19T02:36:35.242Z,70.59
2018-08-19T02:39:05.300Z,70.74
2018-08-19T02:41:35.404Z,70.53
2018-08-19T02:44:05.501Z,70.25
2018-08-19T02:46:35.472Z,70.28
2018-08-19T02:49:05.542Z,71.05
2018-08-19T02:51:35.657Z,70.44
2018-08-19T02:54:05.595Z,70.78
2018-08-19T02:56:35.479Z,71.14
2018-08-19T02:59:05.469Z,70.72
2018-08-19T03:01:35.469Z,71.48
2018-08-19T03:04:05.906Z,71.28
2018-08-19T03:06:37.144Z,71.25
2018-08-19T03:09:09.520Z,71.61
2018-08-19T03:11:39.417Z,71.42
2018-08-19T03:14:09.359Z,71.37
2018-08-19T03:16:39.208Z,71.40
2018-08-19T03:19:08.970Z,72.15
2018-08-19T03:21:39.215Z,73.29
2018-08-19T03:24:09.038Z,73.23
2018-08-19T03:26:39.074Z,73.42
2018-08-19T03:29:13.958Z,73.30
2018-08-19T03:31:44.156Z,73.54
2018-08-19T03:34:13.952Z,73.78
2018-08-19T03:36:43.975Z,74.13
2018-08-19T03:39:18.469Z,73.92
2018-08-19T03:41:48.263Z,74.13
2018-08-19T03:44:18.441Z,73.96
2018-08-19T03:46:48.256Z,73.45
2018-08-19T03:49:18.654Z,73.14
2018-08-19T03:51:48.508Z,73.02
2018-08-19T03:54:18.372Z,73.39
2018-08-19T03:56:48.233Z,74.35
2018-08-19T03:59:18.037Z,74.83
2018-08-19T04:01:48.032Z,74.72
2018-08-19T04:04:18.633Z,74.81
2018-08-19T04:06:48.946Z,74.98
2018-08-19T04:09:18.906Z,75.27
2018-08-19T04:11:58.596Z,75.16
2018-08-19T04:14:30.734Z,75.17
2018-08-19T04:17:02.777Z,74.79
2018-08-19T04:19:32.874Z,74.96
2018-08-19T04:22:05.963Z,75.23
2018-08-19T04:24:36.620Z,75.60
2018-08-19T04:27:07.903Z,76.01
2018-08-19T04:29:38.413Z,75.94
2018-08-19T04:32:12.375Z,75.38
2018-08-19T04:34:42.630Z,75.93
2018-08-19T04:37:12.483Z,75.92
2018-08-19T04:39:42.478Z,76.00
2018-08-19T04:42:12.328Z,76.53
2018-08-19T04:44:42.204Z,76.07
2018-08-19T04:47:23.121Z,76.14
2018-08-19T04:49:54.128Z,75.86
2018-08-19T04:52:25.177Z,75.87
2018-08-19T04:54:56.356Z,76.10
2018-08-19T04:57:26.156Z,75.65
2018-08-19T04:59:55.969Z,75.47
2018-08-19T05:02:26.005Z,75.89
2018-08-19T05:04:56.080Z,75.67
2018-08-19T05:07:26.035Z,75.70
2018-08-19T05:09:55.954Z,76.25
2018-08-19T05:12:28.505Z,76.04
2018-08-19T05:14:58.561Z,75.85
2018-08-19T05:17:28.455Z,75.55
2018-08-19T05:20:11.962Z,75.94
2018-08-19T05:22:42.181Z,75.29
2018-08-19T05:25:12.281Z,75.53
2018-08-19T05:27:42.082Z,75.17
2018-08-19T05:30:12.009Z,75.13
2018-08-19T05:32:47.753Z,74.94
2018-08-19T05:35:18.159Z,74.84
2018-08-19T05:37:47.958Z,74.93
2018-08-19T05:40:18.093Z,74.88
2018-08-19T05:42:48.202Z,74.87
2018-08-19T05:45:17.997Z,75.20
2018-08-19T05:47:57.713Z,74.96
2018-08-19T05:50:27.552Z,75.18
2018-08-19T05:52:57.648Z,74.77
2018-08-19T05:55:27.643Z,76.04
2018-08-19T05:57:57.533Z,75.27
2018-08-19T06:00:28.602Z,74.83
2018-08-19T06:03:01.137Z,75.10
2018-08-19T06:05:31.630Z,75.76
2018-08-19T06:08:08.174Z,75.11
2018-08-19T06:10:38.120Z,75.61
2018-08-19T06:13:08.912Z,74.69
2018-08-19T06:15:39.171Z,74.74
2018-08-19T06:18:09.465Z,74.98
2018-08-19T06:20:39.481Z,74.33
2018-08-19T06:23:09.354Z,74.28
2018-08-19T06:25:39.127Z,73.89
2018-08-19T06:28:09.066Z,73.59
2018-08-19T06:30:38.905Z,73.17
2018-08-19T06:33:09.127Z,73.40
2018-08-19T06:35:38.882Z,73.00
2018-08-19T06:38:09.007Z,71.51
2018-08-19T06:40:38.953Z,71.27
2018-08-19T06:43:09.189Z,71.49
2018-08-19T06:45:45.416Z,71.04
2018-08-19T06:48:15.157Z,70.28
2018-08-19T06:50:45.123Z,69.62
2018-08-19T06:53:20.012Z,69.44
2018-08-19T06:55:51.065Z,68.73
2018-08-19T06:58:21.328Z,68.54
2018-08-19T07:00:51.189Z,67.99
2018-08-19T07:03:21.206Z,68.19
2018-08-19T07:06:05.869Z,67.42
2018-08-19T07:08:36.185Z,67.60
2018-08-19T07:11:06.250Z,66.83
2018-08-19T07:13:36.039Z,66.43
2018-08-19T07:16:06.040Z,66.00
2018-08-19T07:18:36.609Z,65.21
2018-08-19T07:21:07.027Z,64.74
2018-08-19T07:23:36.966Z,64.38
2018-08-19T07:26:07.374Z,63.82
2018-08-19T07:28:37.142Z,64.15
2018-08-19T07:31:06.957Z,63.64
2018-08-19T07:33:36.953Z,63.05
2018-08-19T07:36:06.941Z,62.86
2018-08-19T07:38:37.202Z,62.92
2018-08-19T07:41:07.852Z,62.58
2018-08-19T07:43:38.180Z,62.35
2018-08-19T07:46:08.164Z,61.77
2018-08-19T07:48:38.017Z,61.07
2018-08-19T07:51:08.093Z,60.53
2018-08-19T07:53:38.171Z,60.56
2018-08-19T07:56:08.379Z,60.35
2018-08-19T07:58:43.014Z,59.60
2018-08-19T08:01:13.347Z,58.78
2018-08-19T08:03:43.116Z,58.50
2018-08-19T08:06:13.153Z,57.92
2018-08-19T08:08:43.002Z,58.51
2018-08-19T08:11:12.959Z,57.19
2018-08-19T08:13:43.138Z,56.96
2018-08-19T08:16:12.982Z,56.54
2018-08-19T08:18:53.561Z,55.41
2018-08-19T08:21:24.515Z,54.42
2018-08-19T08:23:54.459Z,54.68
2018-08-19T08:26:24.370Z,54.03
2018-08-19T08:28:59.205Z,54.02
2018-08-19T08:31:28.986Z,52.94
2018-08-19T08:33:58.882Z,53.23
2018-08-19T08:36:28.965Z,52.34
2018-08-19T08:38:59.064Z,52.38
2018-08-19T08:41:29.362Z,51.40
2018-08-19T08:43:59.121Z,50.93
2018-08-19T08:46:28.931Z,49.65
2018-08-19T08:48:58.930Z,49.44
2018-08-19T08:51:28.984Z,48.71
2018-08-19T08:53:59.666Z,48.53
2018-08-19T08:56:29.647Z,48.25
2018-08-19T08:59:00.125Z,47.25
2018-08-19T09:01:29.981Z,48.06
2018-08-19T09:04:00.067Z,47.65
2018-08-19T09:06:30.724Z,47.18
2018-08-19T09:09:00.861Z,46.58
2018-08-19T09:11:30.954Z,45.52
2018-08-19T09:14:01.094Z,45.91
2018-08-19T09:16:31.144Z,45.14
2018-08-19T09:19:01.301Z,45.70
2018-08-19T09:21:31.212Z,45.86
2018-08-19T09:24:01.221Z,44.69
2018-08-19T09:29:15.082Z,43.98
2018-08-19T09:31:45.300Z,44.63
2018-08-19T09:34:15.175Z,44.39
2018-08-19T09:36:45.206Z,44.07
2018-08-19T09:39:15.064Z,43.62
2018-08-19T09:41:45.657Z,42.33
2018-08-19T09:44:15.609Z,43.24
2018-08-19T09:46:45.434Z,42.08
2018-08-19T09:49:15.421Z,40.85
2018-08-19T09:51:50.990Z,41.70
2018-08-19T09:54:25.032Z,41.69
2018-08-19T09:56:55.298Z,40.29
2018-08-19T09:59:25.094Z,41.12
2018-08-19T10:01:55.740Z,39.97
2018-08-19T10:04:26.789Z,40.44
2018-08-19T10:07:13.829Z,39.42
2018-08-19T10:09:44.307Z,39.74
2018-08-19T10:12:15.553Z,40.07
2018-08-19T10:14:45.462Z,39.03
2018-08-19T10:17:15.301Z,38.18
2018-08-19T10:19:45.125Z,38.16
2018-08-19T10:22:14.976Z,38.32
2018-08-19T10:24:45.036Z,37.64
2018-08-19T10:27:27.531Z,37.24
2018-08-19T10:29:57.841Z,36.28
2018-08-19T10:32:27.993Z,36.75
2018-08-19T10:34:58.325Z,36.12
2018-08-19T10:37:28.238Z,36.02
2018-08-19T10:39:58.022Z,35.92
2018-08-19T10:42:30.634Z,35.20
2018-08-19T10:45:01.874Z,36.11
2018-08-19T10:47:32.225Z,35.05
2018-08-19T10:50:06.052Z,35.29
2018-08-19T10:52:39.961Z,33.97
2018-08-19T10:55:11.557Z,34.77
2018-08-19T10:57:41.984Z,34.71
2018-08-19T11:00:16.647Z,34.76
2018-08-19T11:02:46.720Z,34.71
2018-08-19T11:05:17.245Z,34.16
2018-08-19T11:07:47.261Z,34.21
2018-08-19T11:10:21.438Z,33.50
2018-08-19T11:12:53.764Z,34.13
2018-08-19T11:15:32.941Z,34.41
2018-08-19T11:18:15.638Z,33.41
2018-08-19T11:20:45.933Z,32.93
2018-08-19T11:23:22.073Z,33.35
2018-08-19T11:25:53.322Z,32.87
2018-08-19T11:28:32.429Z,31.80
2018-08-19T11:31:02.604Z,32.63
2018-08-19T11:33:42.030Z,32.35
2018-08-19T11:36:12.764Z,31.15
2018-08-19T11:38:43.417Z,31.49
2018-08-19T11:41:13.295Z,31.54
2018-08-19T11:43:44.520Z,32.46
2018-08-19T11:46:14.653Z,31.72
2018-08-19T11:48:44.555Z,31.82
2018-08-19T11:51:14.807Z,31.94
2018-08-19T11:53:45.016Z,31.19
2018-08-19T11:56:15.034Z,30.59
2018-08-19T11:58:48.417Z,30.37
2018-08-19T12:01:19.424Z,30.41
2018-08-19T12:04:15.365Z,30.86
2018-08-19T12:06:45.221Z,30.29
2018-08-19T12:09:15.097Z,29.90
2018-08-19T12:11:46.230Z,30.09
2018-08-19T12:14:17.109Z,29.47
2018-08-19T12:16:52.461Z,28.94
2018-08-19T12:19:29.060Z,28.00
2018-08-19T12:22:04.366Z,28.79
2018-08-19T12:24:42.004Z,28.75
2018-08-19T12:27:16.295Z,28.68
2018-08-19T12:29:47.855Z,28.81
2018-08-19T12:32:27.459Z,27.86
2018-08-19T12:34:59.058Z,28.28
2018-08-19T12:37:32.444Z,28.13
2018-08-19T12:40:03.087Z,27.90
2018-08-19T12:42:38.567Z,28.33
2018-08-19T12:45:09.748Z,28.69
2018-08-19T12:47:40.097Z,28.37
2018-08-19T12:50:16.927Z,28.25
2018-08-19T12:52:48.143Z,28.28
2018-08-19T12:55:20.355Z,27.75
2018-08-19T12:58:22.157Z,27.94
2018-08-19T13:00:52.268Z,27.84
2018-08-19T13:03:23.275Z,27.04
2018-08-19T13:06:02.354Z,27.33
2018-08-19T13:08:32.164Z,26.74
2018-08-19T13:11:05.430Z,27.21
2018-08-19T13:13:35.432Z,26.39
2018-08-19T13:16:05.377Z,26.61
2018-08-19T13:18:43.376Z,26.90
2018-08-19T13:21:19.133Z,26.50
2018-08-19T13:23:49.038Z,26.50
2018-08-19T13:26:19.053Z,26.99
2018-08-19T13:28:53.154Z,26.71
2018-08-19T13:31:26.948Z,26.75
2018-08-19T13:33:57.265Z,26.50
2018-08-19T13:36:27.235Z,26.41
2018-08-19T13:38:57.138Z,26.37
2018-08-19T13:41:27.139Z,26.78
2018-08-19T13:43:57.033Z,26.88
2018-08-19T13:46:27.196Z,26.70
2018-08-19T13:48:57.320Z,27.02
2018-08-19T13:51:27.561Z,25.85
2018-08-19T13:53:57.618Z,25.00
2018-08-19T13:56:28.203Z,27.02
2018-08-19T13:58:58.097Z,26.22
2018-08-19T14:01:28.201Z,26.27
2018-08-19T14:03:58.118Z,26.44
2018-08-19T14:06:28.122Z,26.34
2018-08-19T14:08:58.070Z,26.31
2018-08-19T14:11:28.289Z,26.62
2018-08-19T14:13:58.227Z,25.98
2018-08-19T14:16:28.302Z,26.36
2018-08-19T14:18:58.254Z,26.65
2018-08-19T14:21:28.225Z,26.30
2018-08-19T14:23:58.190Z,25.83
2018-08-19T14:26:28.178Z,25.58
2018-08-19T14:28:58.125Z,24.84
2018-08-19T14:31:28.134Z,24.76
2018-08-19T14:33:58.221Z,24.89
2018-08-19T14:36:28.264Z,25.41
2018-08-19T14:38:58.349Z,25.66
2018-08-19T14:41:28.283Z,25.49
2018-08-19T14:44:05.641Z,25.98
2018-08-19T14:46:35.888Z,25.79
2018-08-19T14:49:07.279Z,25.50
2018-08-19T14:51:59.412Z,25.85
2018-08-19T14:54:29.353Z,25.81
2018-08-19T14:56:59.254Z,26.19
2018-08-19T14:59:29.121Z,26.00
2018-08-19T15:02:01.834Z,25.95
2018-08-19T15:04:31.965Z,25.89
2018-08-19T15:07:02.043Z,26.15
2018-08-19T15:09:33.131Z,25.85
2018-08-19T15:12:12.166Z,26.03
2018-08-19T15:14:42.116Z,25.98
2018-08-19T15:17:13.923Z,26.26
2018-08-19T15:19:46.218Z,26.13
2018-08-19T15:22:16.823Z,26.12
2018-08-19T15:24:47.033Z,26.05
2018-08-19T15:27:17.744Z,25.90
2018-08-19T15:29:49.544Z,25.70
2018-08-19T15:32:21.102Z,25.57
2018-08-19T15:34:51.024Z,25.70
2018-08-19T15:37:21.548Z,26.02
2018-08-19T15:39:51.527Z,25.98
2018-08-19T15:42:21.434Z,25.78
2018-08-19T15:44:51.296Z,26.19
2018-08-19T15:47:21.195Z,26.88
2018-08-19T15:50:00.764Z,26.46
2018-08-19T15:52:30.623Z,26.11
2018-08-19T15:55:01.221Z,26.77
2018-08-19T15:57:31.486Z,26.70
2018-08-19T16:00:02.177Z,26.66
2018-08-19T16:02:32.164Z,27.25
2018-08-19T16:05:05.443Z,27.22
2018-08-19T16:07:35.417Z,26.66
2018-08-19T16:10:05.745Z,26.94
2018-08-19T16:12:38.084Z,27.32
2018-08-19T16:15:12.132Z,27.61
2018-08-19T16:17:42.333Z,27.31
2018-08-19T16:20:12.261Z,27.68
2018-08-19T16:22:42.137Z,27.44
2018-08-19T16:25:12.213Z,27.49
2018-08-19T16:27:42.342Z,27.71
2018-08-19T16:30:12.244Z,27.69
2018-08-19T16:32:42.322Z,27.66
2018-08-19T16:35:12.224Z,28.11
2018-08-19T16:37:42.593Z,28.10
2018-08-19T16:40:14.492Z,28.02
2018-08-19T16:42:44.609Z,28.22
2018-08-19T16:45:14.562Z,28.33
2018-08-19T16:47:44.736Z,28.66
2018-08-19T16:50:15.183Z,28.98
2018-08-19T16:52:45.349Z,29.06
2018-08-19T16:55:15.224Z,29.18
2018-08-19T16:57:45.249Z,29.50
2018-08-19T17:00:15.716Z,29.69
2018-08-19T17:02:45.940Z,29.82
2018-08-19T17:05:32.766Z,29.90
2018-08-19T17:08:02.940Z,29.77
2018-08-19T17:10:33.151Z,30.10
2018-08-19T17:13:03.049Z,29.83
2018-08-19T17:15:33.104Z,30.04
2018-08-19T17:18:03.167Z,30.50
2018-08-19T17:20:33.029Z,30.89
2018-08-19T17:23:03.265Z,31.30
2018-08-19T17:25:33.077Z,31.11
2018-08-19T17:28:07.946Z,31.95
2018-08-19T17:30:38.056Z,31.91
2018-08-19T17:33:10.097Z,31.55
2018-08-19T17:35:42.210Z,31.85
2018-08-19T17:38:12.676Z,31.95
2018-08-19T17:40:42.532Z,32.38
2018-08-19T17:43:12.505Z,33.01
2018-08-19T17:45:42.466Z,32.53
2018-08-19T17:48:12.695Z,33.39
2018-08-19T17:50:42.817Z,33.09
2018-08-19T17:53:12.662Z,34.05
2018-08-19T17:55:43.070Z,34.08
2018-08-19T17:58:13.133Z,34.96
2018-08-19T18:00:42.982Z,35.46
2018-08-19T18:03:13.341Z,35.61
2018-08-19T18:05:43.176Z,34.79
2018-08-19T18:08:13.313Z,35.32
2018-08-19T18:10:47.241Z,36.28
2018-08-19T18:13:17.221Z,36.60
2018-08-19T18:15:47.321Z,36.80
2018-08-19T18:18:17.246Z,36.58
2018-08-19T18:20:47.025Z,37.05
2018-08-19T18:23:33.381Z,37.11
2018-08-19T18:26:03.137Z,37.56
2018-08-19T18:28:33.680Z,37.58
2018-08-19T18:33:57.815Z,38.25
2018-08-19T18:36:29.029Z,39.31
2018-08-19T18:38:59.605Z,39.77
2018-08-19T18:41:36.183Z,40.28
2018-08-19T18:44:07.696Z,40.22
2018-08-19T18:46:37.851Z,40.80
2018-08-19T18:49:12.492Z,40.67
2018-08-19T18:51:44.330Z,41.38
2018-08-19T18:54:31.206Z,41.52
2018-08-19T18:57:02.495Z,41.81
2018-08-19T18:59:32.428Z,42.11
2018-08-19T19:02:03.727Z,41.85
2018-08-19T19:04:33.869Z,42.03
2018-08-19T19:07:03.976Z,42.72
2018-08-19T19:09:48.876Z,42.79
2018-08-19T19:12:22.606Z,43.44
2018-08-19T19:14:52.574Z,43.69
2018-08-19T19:17:22.490Z,43.32
2018-08-19T19:19:52.393Z,43.58
2018-08-19T19:22:22.659Z,44.45
2018-08-19T19:24:53.687Z,44.47
2018-08-19T19:27:23.867Z,43.99
2018-08-19T19:29:59.230Z,43.91
2018-08-19T19:32:29.530Z,44.66
2018-08-19T19:35:06.590Z,45.17
2018-08-19T19:37:36.591Z,45.01
2018-08-19T19:40:09.651Z,45.18
2018-08-19T19:42:39.572Z,45.35
2018-08-19T19:45:09.593Z,45.91
2018-08-19T19:47:39.602Z,45.65
2018-08-19T19:50:10.172Z,45.71
2018-08-19T19:52:45.738Z,45.61
2018-08-19T19:55:15.854Z,46.08
2018-08-19T19:57:46.045Z,46.60
2018-08-19T20:00:15.937Z,46.61
2018-08-19T20:02:46.750Z,46.72
2018-08-19T20:05:21.781Z,46.36
2018-08-19T20:07:52.717Z,46.78
2018-08-19T20:10:27.416Z,46.70
2018-08-19T20:12:57.448Z,47.09
2018-08-19T20:15:27.337Z,47.07
2018-08-19T20:17:57.481Z,47.30
2018-08-19T20:20:27.409Z,47.44
2018-08-19T20:22:57.390Z,47.98
2018-08-19T20:25:27.293Z,48.05
2018-08-19T20:28:01.878Z,48.01
2018-08-19T20:30:32.173Z,48.09
2018-08-19T20:33:02.268Z,48.31
2018-08-19T20:35:32.398Z,48.36
2018-08-19T20:38:02.265Z,48.74
2018-08-19T20:40:32.111Z,48.92
2018-08-19T20:43:03.999Z,49.48
2018-08-19T20:45:34.161Z,49.05
2018-08-19T20:48:04.105Z,49.64
2018-08-19T20:50:33.931Z,50.08
2018-08-19T20:53:04.125Z,50.64
2018-08-19T20:55:34.024Z,51.77
2018-08-19T20:58:03.865Z,51.06
2018-08-19T21:00:34.284Z,51.06
2018-08-19T21:03:04.381Z,50.73
2018-08-19T21:05:34.525Z,51.55
2018-08-19T21:08:06.994Z,50.94
2018-08-19T21:10:37.279Z,51.17
2018-08-19T21:13:12.315Z,51.01
2018-08-19T21:15:43.937Z,51.52
2018-08-19T21:18:14.005Z,51.51
2018-08-19T21:20:44.515Z,51.83
2018-08-19T21:23:14.293Z,51.68
2018-08-19T21:25:50.914Z,51.79
2018-08-19T21:28:21.509Z,51.80
2018-08-19T21:30:51.438Z,51.85
2018-08-19T21:33:21.215Z,51.53
2018-08-19T21:35:53.147Z,51.55
2018-08-19T21:38:22.980Z,51.93
2018-08-19T21:40:56.445Z,51.80
2018-08-19T21:43:28.257Z,51.84
2018-08-19T21:45:58.623Z,51.52
2018-08-19T21:48:28.378Z,52.40
2018-08-19T21:50:58.237Z,52.58
2018-08-19T21:53:28.149Z,53.56
2018-08-19T21:55:57.884Z,55.26
2018-08-19T21:58:27.889Z,54.63
2018-08-19T22:02:02.206Z,55.18
2018-08-19T22:04:32.094Z,55.22
2018-08-19T22:07:01.900Z,54.50
2018-08-19T22:09:36.959Z,54.54
2018-08-19T22:12:08.765Z,54.52
2018-08-19T22:14:38.607Z,54.53
2018-08-19T22:17:12.283Z,53.90
2018-08-19T22:19:42.242Z,54.56
2018-08-19T22:22:12.041Z,55.57
2018-08-19T22:24:41.964Z,56.60
2018-08-19T22:27:17.567Z,56.60
2018-08-19T22:29:47.461Z,56.44
2018-08-19T22:32:17.385Z,56.14
2018-08-19T22:34:47.120Z,55.35
2018-08-19T22:37:17.294Z,56.16
2018-08-19T22:39:48.160Z,55.71
2018-08-19T22:42:18.000Z,56.70
2018-08-19T22:44:48.072Z,57.01
2018-08-19T22:47:17.848Z,58.64
2018-08-19T22:49:48.249Z,57.84
2018-08-19T22:52:24.589Z,59.16
2018-08-19T22:54:58.220Z,58.54
2018-08-19T22:57:28.800Z,57.82
2018-08-19T22:59:58.873Z,57.97
2018-08-19T23:02:29.278Z,56.84
2018-08-19T23:04:59.245Z,57.08
2018-08-19T23:07:29.058Z,56.56
2018-08-19T23:09:58.969Z,56.43
2018-08-19T23:12:29.401Z,56.71
2018-08-19T23:16:08.220Z,57.88
2018-08-19T23:18:39.417Z,58.61
2018-08-19T23:21:10.125Z,58.65
2018-08-19T23:23:40.709Z,58.75
2018-08-19T23:26:11.341Z,59.83
2018-08-19T23:28:42.738Z,60.63
2018-08-19T23:31:13.328Z,59.97
2018-08-19T23:33:44.758Z,59.90
2018-08-19T23:36:15.445Z,61.40
2018-08-19T23:38:46.713Z,60.73
2018-08-19T23:41:17.395Z,59.75
2018-08-19T23:43:48.665Z,58.83
2018-08-19T23:46:19.361Z,58.94
2018-08-19T23:48:50.682Z,58.55
2018-08-19T23:51:27.264Z,58.13
2018-08-19T23:53:57.148Z,57.95
2018-08-19T23:56:27.014Z,58.32
2018-08-19T23:58:57.598Z,57.63
